createdAt,value
2022-10-13T00:03:40.369Z,7.20
2022-10-13T00:08:43.130Z,7.60
2022-10-13T00:13:47.203Z,7.00
2022-10-13T00:18:50.037Z,8.80
2022-10-13T00:23:53.196Z,7.00
2022-10-13T00:28:57.388Z,7.00
2022-10-13T00:34:00.877Z,6.00
2022-10-13T00:39:03.576Z,7.00
2022-10-13T00:44:08.572Z,7.00
2022-10-13T00:49:12.968Z,6.60
2022-10-13T00:54:22.368Z,6.00
2022-10-13T00:59:29.220Z,6.00
2022-10-13T01:04:33.187Z,6.00
2022-10-13T01:09:37.786Z,6.80
2022-10-13T01:14:47.179Z,6.80
2022-10-13T01:20:21.217Z,6.00
2022-10-13T01:25:33.339Z,6.00
2022-10-13T01:30:38.053Z,8.00
2022-10-13T01:35:48.469Z,6.60
2022-10-13T01:40:52.945Z,8.60
2022-10-13T01:45:58.274Z,5.80
2022-10-13T01:51:00.968Z,6.40
2022-10-13T01:56:03.609Z,5.40
2022-10-13T02:01:15.633Z,6.00
2022-10-13T02:06:22.080Z,5.20
2022-10-13T02:11:24.720Z,6.00
2022-10-13T02:16:29.971Z,6.00
2022-10-13T02:21:32.661Z,5.40
2022-10-13T02:26:38.079Z,6.00
2022-10-13T02:31:48.074Z,5.60
2022-10-13T02:36:50.805Z,6.00
2022-10-13T02:41:53.484Z,6.00
2022-10-13T02:46:57.469Z,6.00
2022-10-13T02:52:00.124Z,6.60
2022-10-13T02:57:02.741Z,5.40
2022-10-13T03:02:06.774Z,6.80
2022-10-13T03:07:10.184Z,6.40
2022-10-13T03:12:12.822Z,5.00
2022-10-13T03:17:16.817Z,6.00
2022-10-13T03:22:19.687Z,5.20
2022-10-13T03:27:22.508Z,6.60
2022-10-13T03:32:26.601Z,6.00
2022-10-13T03:37:30.088Z,5.60
2022-10-13T03:42:33.101Z,6.20
2022-10-13T03:47:37.338Z,7.00
2022-10-13T03:52:40.096Z,5.40
2022-10-13T03:57:42.727Z,5.00
2022-10-13T04:02:47.256Z,7.00
2022-10-13T04:07:49.906Z,6.40
2022-10-13T04:12:54.281Z,6.80
2022-10-13T04:17:58.216Z,6.20
2022-10-13T04:23:00.961Z,5.20
2022-10-13T04:28:03.804Z,6.00
2022-10-13T04:33:09.506Z,6.00
2022-10-13T04:38:12.211Z,6.00
2022-10-13T04:43:15.825Z,6.00
2022-10-13T04:48:19.838Z,6.00
2022-10-13T04:53:23.695Z,5.60
2022-10-13T04:58:26.521Z,5.00
2022-10-13T05:03:30.959Z,5.00
2022-10-13T05:08:33.886Z,5.00
2022-10-13T05:13:36.806Z,5.60
2022-10-13T05:18:40.910Z,5.00
2022-10-13T05:23:43.552Z,6.00
2022-10-13T05:28:46.394Z,5.40
2022-10-13T05:33:50.513Z,5.20
2022-10-13T05:38:59.068Z,5.80
2022-10-13T05:44:03.413Z,5.20
2022-10-13T05:49:07.460Z,6.00
2022-10-13T05:54:11.235Z,5.00
2022-10-13T05:59:14.926Z,5.80
2022-10-13T06:04:25.434Z,5.00
2022-10-13T06:09:28.522Z,6.00
2022-10-13T06:14:31.156Z,5.20
2022-10-13T06:19:35.265Z,3.40
2022-10-13T06:24:43.055Z,5.00
2022-10-13T06:29:46.256Z,6.00
2022-10-13T06:34:50.250Z,5.00
2022-10-13T06:39:52.936Z,5.40
2022-10-13T06:44:55.854Z,6.00
2022-10-13T06:49:59.993Z,6.20
2022-10-13T06:55:02.677Z,6.00
2022-10-13T07:00:06.847Z,7.20
2022-10-13T07:05:12.104Z,7.20
2022-10-13T07:10:16.330Z,9.20
2022-10-13T07:15:19.043Z,9.00
2022-10-13T07:20:26.757Z,9.80
2022-10-13T07:25:29.438Z,10.00
2022-10-13T07:30:32.507Z,29.20
2022-10-13T07:35:39.162Z,30.00
2022-10-13T07:40:41.878Z,32.00
2022-10-13T07:45:44.535Z,26.80
2022-10-13T07:50:48.568Z,24.60
2022-10-13T07:55:51.348Z,23.60
2022-10-13T08:00:57.383Z,21.40
2022-10-13T08:06:03.538Z,23.40
2022-10-13T08:11:07.149Z,20.60
2022-10-13T08:16:10.932Z,20.40
2022-10-13T08:21:57.624Z,18.80
2022-10-13T08:26:40.139Z,19.00
2022-10-13T08:31:43.100Z,19.40
2022-10-13T08:36:47.476Z,19.20
2022-10-13T08:41:50.238Z,20.80
2022-10-13T08:46:57.363Z,19.60
2022-10-13T08:52:03.741Z,21.60
2022-10-13T08:57:06.605Z,18.60
2022-10-13T09:02:12.396Z,17.60
2022-10-13T09:07:18.326Z,18.80
2022-10-13T09:12:24.280Z,20.00
2022-10-13T09:17:27.307Z,20.00
2022-10-13T09:22:32.316Z,19.00
2022-10-13T09:27:44.173Z,17.40
2022-10-13T09:32:46.825Z,17.60
2022-10-13T09:38:02.512Z,18.60
2022-10-13T09:43:07.318Z,17.00
2022-10-13T09:48:17.028Z,17.80
2022-10-13T09:53:24.031Z,18.80
2022-10-13T09:58:29.216Z,17.00
2022-10-13T10:03:34.274Z,15.00
2022-10-13T10:09:02.099Z,16.40
2022-10-13T10:14:22.716Z,23.80
2022-10-13T10:19:28.305Z,27.80
2022-10-13T10:24:35.015Z,21.20
2022-10-13T10:29:41.633Z,22.00
2022-10-13T10:34:47.767Z,19.60
2022-10-13T10:39:53.640Z,20.00
2022-10-13T10:44:56.353Z,21.00
2022-10-13T10:50:02.679Z,18.80
2022-10-13T10:55:12.067Z,18.60
2022-10-13T11:00:16.299Z,19.00
2022-10-13T11:05:19.160Z,16.60
2022-10-13T11:10:23.593Z,19.20
2022-10-13T11:15:27.313Z,22.00
2022-10-13T11:20:49.182Z,28.75
2022-10-13T11:25:53.155Z,35.25
2022-10-13T11:30:56.001Z,36.75
2022-10-13T11:35:58.686Z,37.75
2022-10-13T11:41:10.422Z,36.50
2022-10-13T11:46:21.116Z,40.50
2022-10-13T11:51:31.897Z,40.75
2022-10-13T11:56:39.706Z,35.50
2022-10-13T12:01:44.951Z,35.50
2022-10-13T12:06:48.469Z,34.75
2022-10-13T12:11:58.878Z,33.25
2022-10-13T12:17:02.359Z,34.25
2022-10-13T12:22:12.530Z,32.25
2022-10-13T12:27:21.471Z,30.75
2022-10-13T12:32:25.489Z,28.75
2022-10-13T12:37:29.057Z,29.75
2022-10-13T12:42:33.831Z,27.00
2022-10-13T12:47:38.023Z,28.80
2022-10-13T12:52:40.753Z,26.40
2022-10-13T12:57:46.013Z,22.60
2022-10-13T13:02:51.142Z,27.00
2022-10-13T13:07:53.913Z,24.25
2022-10-13T13:13:00.732Z,23.60
2022-10-13T13:18:29.346Z,25.00
2022-10-13T13:23:35.396Z,23.00
2022-10-13T13:28:41.214Z,21.60
2022-10-13T13:33:45.547Z,20.20
2022-10-13T13:38:48.345Z,24.00
2022-10-13T13:43:52.332Z,19.80
2022-10-13T13:48:55.145Z,19.60
2022-10-13T13:53:57.788Z,20.00
2022-10-13T13:59:01.767Z,18.00
2022-10-13T14:04:04.444Z,20.20
2022-10-13T14:09:07.107Z,18.80
2022-10-13T14:14:11.204Z,19.80
2022-10-13T14:19:13.878Z,18.80
2022-10-13T14:24:16.710Z,16.40
2022-10-13T14:29:20.708Z,19.00
2022-10-13T14:34:23.440Z,15.80
2022-10-13T14:39:26.100Z,16.80
2022-10-13T14:44:30.419Z,17.60
2022-10-13T14:49:33.302Z,18.40
2022-10-13T14:54:36.014Z,18.00
2022-10-13T14:59:40.871Z,19.80
2022-10-13T15:04:43.682Z,20.80
2022-10-13T15:09:53.208Z,18.20
2022-10-13T15:15:06.195Z,18.40
2022-10-13T15:20:10.230Z,14.40
2022-10-13T15:25:13.106Z,18.20
2022-10-13T15:30:17.541Z,14.60
2022-10-13T15:35:20.469Z,14.40
2022-10-13T15:40:23.166Z,12.80
2022-10-13T15:45:27.294Z,13.60
2022-10-13T15:50:30.192Z,16.40
2022-10-13T15:55:33.166Z,16.00
2022-10-13T16:00:37.263Z,14.00
2022-10-13T16:05:41.444Z,17.00
2022-10-13T16:10:44.111Z,16.60
2022-10-13T16:15:57.188Z,16.20
2022-10-13T16:21:00.167Z,15.40
2022-10-13T16:26:02.911Z,16.00
2022-10-13T16:31:08.855Z,13.60
2022-10-13T16:36:14.163Z,14.80
2022-10-13T16:41:18.129Z,17.00
2022-10-13T16:46:22.200Z,15.20
2022-10-13T16:51:25.718Z,16.20
2022-10-13T16:56:28.596Z,13.60
2022-10-13T17:01:33.016Z,13.00
2022-10-13T17:06:38.573Z,12.80
2022-10-13T17:11:42.650Z,13.00
2022-10-13T17:16:46.772Z,10.60
2022-10-13T17:21:49.792Z,12.00
2022-10-13T17:26:52.513Z,14.60
2022-10-13T17:31:56.481Z,14.80
2022-10-13T17:36:59.221Z,13.00
2022-10-13T17:42:02.254Z,14.80
2022-10-13T17:47:06.516Z,13.40
2022-10-13T17:52:09.349Z,12.20
2022-10-13T17:57:12.026Z,14.00
2022-10-13T18:02:16.203Z,12.80
2022-10-13T18:07:19.302Z,12.00
2022-10-13T18:12:22.638Z,12.20
2022-10-13T18:17:26.639Z,13.40
2022-10-13T18:22:29.395Z,13.00
2022-10-13T18:27:32.967Z,13.60
2022-10-13T18:32:37.061Z,12.20
2022-10-13T18:37:40.139Z,13.20
2022-10-13T18:42:46.586Z,12.00
2022-10-13T18:47:52.862Z,16.40
2022-10-13T18:52:55.622Z,27.40
2022-10-13T18:57:58.281Z,23.40
2022-10-13T19:03:02.281Z,24.20
2022-10-13T19:08:09.276Z,20.20
2022-10-13T19:13:11.991Z,21.00
2022-10-13T19:18:16.010Z,20.60
2022-10-13T19:23:22.012Z,19.80
2022-10-13T19:28:25.251Z,19.40
2022-10-13T19:33:31.637Z,19.40
2022-10-13T19:38:34.392Z,22.20
2022-10-13T19:43:37.175Z,17.60
2022-10-13T19:48:41.254Z,17.40
2022-10-13T19:53:44.049Z,18.00
2022-10-13T19:58:46.837Z,19.00
2022-10-13T20:03:51.012Z,18.00
2022-10-13T20:08:53.747Z,16.80
2022-10-13T20:13:56.404Z,15.60
2022-10-13T20:19:01.142Z,17.80
2022-10-13T20:24:03.815Z,17.80
2022-10-13T20:29:06.565Z,16.80
2022-10-13T20:34:11.712Z,14.60
2022-10-13T20:39:14.550Z,16.80
2022-10-13T20:44:17.222Z,15.80
2022-10-13T20:49:21.421Z,16.20
2022-10-13T20:54:24.356Z,14.60
2022-10-13T20:59:27.043Z,18.00
2022-10-13T21:04:31.187Z,15.00
2022-10-13T21:09:35.057Z,13.60
2022-10-13T21:14:37.897Z,14.60
2022-10-13T21:19:41.883Z,13.60
2022-10-13T21:24:44.503Z,14.80
2022-10-13T21:29:47.216Z,16.40
2022-10-13T21:34:53.947Z,13.80
2022-10-13T21:39:57.427Z,15.00
2022-10-13T21:45:00.129Z,13.40
2022-10-13T21:50:04.494Z,16.80
2022-10-13T21:55:08.451Z,14.20
2022-10-13T22:00:12.307Z,14.60
2022-10-13T22:05:16.756Z,13.00
2022-10-13T22:10:20.829Z,12.20
2022-10-13T22:15:23.443Z,13.20
2022-10-13T22:20:27.534Z,12.00
2022-10-13T22:25:30.234Z,13.40
2022-10-13T22:30:32.880Z,12.00
2022-10-13T22:35:37.070Z,10.20
2022-10-13T22:40:39.721Z,12.20
2022-10-13T22:45:50.647Z,14.00
2022-10-13T22:50:54.700Z,12.00
2022-10-13T22:55:57.533Z,12.40
2022-10-13T23:01:05.672Z,12.20
2022-10-13T23:06:13.604Z,13.60
2022-10-13T23:11:16.439Z,12.40
2022-10-13T23:16:20.298Z,12.40
2022-10-13T23:21:26.947Z,10.60
2022-10-13T23:26:30.014Z,12.00
2022-10-13T23:31:32.832Z,13.00
2022-10-13T23:36:37.022Z,11.20
2022-10-13T23:41:39.930Z,10.80
2022-10-13T23:46:42.889Z,11.40
2022-10-13T23:51:47.684Z,11.00
2022-10-13T23:56:50.516Z,12.60
